sensor_id;sensor_type;location;lat;lon;timestamp;temperature;humidity
16076;DHT22;8142;48.242;11.644;2024-03-17T00:02:22;9.50;99.90
16076;DHT22;8142;48.242;11.644;2024-03-17T00:04:48;9.50;99.90
16076;DHT22;8142;48.242;11.644;2024-03-17T00:07:14;9.50;99.90
16076;DHT22;8142;48.242;11.644;2024-03-17T00:09:41;9.60;99.90
16076;DHT22;8142;48.242;11.644;2024-03-17T00:12:08;9.50;99.90
16076;DHT22;8142;48.242;11.644;2024-03-17T00:14:34;9.40;99.90
16076;DHT22;8142;48.242;11.644;2024-03-17T00:17:01;9.40;99.90
16076;DHT22;8142;48.242;11.644;2024-03-17T00:19:27;9.60;99.90
16076;DHT22;8142;48.242;11.644;2024-03-17T00:21:53;9.40;99.90
16076;DHT22;8142;48.242;11.644;2024-03-17T00:24:19;9.40;99.90
16076;DHT22;8142;48.242;11.644;2024-03-17T00:26:46;9.40;99.90
16076;DHT22;8142;48.242;11.644;2024-03-17T00:29:12;9.40;99.90
16076;DHT22;8142;48.242;11.644;2024-03-17T00:31:38;9.30;99.90
16076;DHT22;8142;48.242;11.644;2024-03-17T00:34:04;9.40;99.90
16076;DHT22;8142;48.242;11.644;2024-03-17T00:36:30;9.40;99.90
16076;DHT22;8142;48.242;11.644;2024-03-17T00:38:57;9.30;99.90
16076;DHT22;8142;48.242;11.644;2024-03-17T00:41:23;9.30;99.90
16076;DHT22;8142;48.242;11.644;2024-03-17T00:43:52;9.30;99.90
16076;DHT22;8142;48.242;11.644;2024-03-17T00:46:21;9.30;99.90
16076;DHT22;8142;48.242;11.644;2024-03-17T00:48:48;9.30;99.90
16076;DHT22;8142;48.242;11.644;2024-03-17T00:51:15;9.30;99.90
16076;DHT22;8142;48.242;11.644;2024-03-17T00:53:41;9.30;99.90
16076;DHT22;8142;48.242;11.644;2024-03-17T00:56:07;9.30;99.90
16076;DHT22;8142;48.242;11.644;2024-03-17T00:58:33;9.30;99.90
16076;DHT22;8142;48.242;11.644;2024-03-17T01:00:59;9.30;99.90
16076;DHT22;8142;48.242;11.644;2024-03-17T01:03:25;9.30;99.90
16076;DHT22;8142;48.242;11.644;2024-03-17T01:05:52;9.30;99.90
16076;DHT22;8142;48.242;11.644;2024-03-17T01:08:21;9.30;99.90
16076;DHT22;8142;48.242;11.644;2024-03-17T01:10:48;9.30;99.90
16076;DHT22;8142;48.242;11.644;2024-03-17T01:13:17;9.30;99.90
16076;DHT22;8142;48.242;11.644;2024-03-17T01:15:43;9.10;99.90
16076;DHT22;8142;48.242;11.644;2024-03-17T01:18:09;9.20;99.90
16076;DHT22;8142;48.242;11.644;2024-03-17T01:20:36;9.20;99.90
16076;DHT22;8142;48.242;11.644;2024-03-17T01:23:03;9.20;99.90
16076;DHT22;8142;48.242;11.644;2024-03-17T01:25:29;9.20;99.90
16076;DHT22;8142;48.242;11.644;2024-03-17T01:27:56;9.20;99.90
16076;DHT22;8142;48.242;11.644;2024-03-17T01:30:23;9.20;99.90
16076;DHT22;8142;48.242;11.644;2024-03-17T01:32:50;9.30;99.90
16076;DHT22;8142;48.242;11.644;2024-03-17T01:35:17;9.10;99.90
16076;DHT22;8142;48.242;11.644;2024-03-17T01:37:43;9.10;99.90
16076;DHT22;8142;48.242;11.644;2024-03-17T01:40:10;9.10;99.90
16076;DHT22;8142;48.242;11.644;2024-03-17T01:42:40;9.10;99.90
16076;DHT22;8142;48.242;11.644;2024-03-17T01:45:31;9.10;99.90
16076;DHT22;8142;48.242;11.644;2024-03-17T01:47:59;9.10;99.90
16076;DHT22;8142;48.242;11.644;2024-03-17T01:50:33;9.00;99.90
16076;DHT22;8142;48.242;11.644;2024-03-17T01:53:03;9.00;99.90
16076;DHT22;8142;48.242;11.644;2024-03-17T01:55:33;9.00;99.90
16076;DHT22;8142;48.242;11.644;2024-03-17T01:58:01;8.90;99.90
16076;DHT22;8142;48.242;11.644;2024-03-17T02:00:28;8.90;99.90
16076;DHT22;8142;48.242;11.644;2024-03-17T02:02:57;8.90;99.90
16076;DHT22;8142;48.242;11.644;2024-03-17T02:05:23;8.80;99.90
16076;DHT22;8142;48.242;11.644;2024-03-17T02:07:49;8.80;99.90
16076;DHT22;8142;48.242;11.644;2024-03-17T02:10:15;8.80;99.90
16076;DHT22;8142;48.242;11.644;2024-03-17T02:12:41;8.80;99.90
16076;DHT22;8142;48.242;11.644;2024-03-17T02:15:08;8.80;99.90
16076;DHT22;8142;48.242;11.644;2024-03-17T02:17:34;8.80;99.90
16076;DHT22;8142;48.242;11.644;2024-03-17T02:20:00;8.80;99.90
16076;DHT22;8142;48.242;11.644;2024-03-17T02:22:27;8.80;99.90
16076;DHT22;8142;48.242;11.644;2024-03-17T02:24:54;8.80;99.90
16076;DHT22;8142;48.242;11.644;2024-03-17T02:27:20;8.60;99.90
16076;DHT22;8142;48.242;11.644;2024-03-17T02:29:45;8.80;99.90
16076;DHT22;8142;48.242;11.644;2024-03-17T02:32:12;8.80;99.90
16076;DHT22;8142;48.242;11.644;2024-03-17T02:34:38;8.70;99.90
16076;DHT22;8142;48.242;11.644;2024-03-17T02:37:05;8.70;99.90
16076;DHT22;8142;48.242;11.644;2024-03-17T02:39:33;8.70;99.90
16076;DHT22;8142;48.242;11.644;2024-03-17T02:42:10;8.70;99.90
16076;DHT22;8142;48.242;11.644;2024-03-17T02:44:37;8.70;99.90
16076;DHT22;8142;48.242;11.644;2024-03-17T02:47:05;8.70;99.90
16076;DHT22;8142;48.242;11.644;2024-03-17T02:49:31;8.70;99.90
16076;DHT22;8142;48.242;11.644;2024-03-17T02:52:06;8.70;99.90
16076;DHT22;8142;48.242;11.644;2024-03-17T02:54:33;8.80;99.90
16076;DHT22;8142;48.242;11.644;2024-03-17T02:57:01;8.70;99.90
16076;DHT22;8142;48.242;11.644;2024-03-17T02:59:27;8.70;99.90
16076;DHT22;8142;48.242;11.644;2024-03-17T03:01:53;8.70;99.90
16076;DHT22;8142;48.242;11.644;2024-03-17T03:04:20;8.80;99.90
16076;DHT22;8142;48.242;11.644;2024-03-17T03:06:46;8.70;99.90
16076;DHT22;8142;48.242;11.644;2024-03-17T03:09:12;8.70;99.90
16076;DHT22;8142;48.242;11.644;2024-03-17T03:11:40;8.70;99.90
16076;DHT22;8142;48.242;11.644;2024-03-17T03:14:07;8.70;99.90
16076;DHT22;8142;48.242;11.644;2024-03-17T03:16:33;8.80;99.90
16076;DHT22;8142;48.242;11.644;2024-03-17T03:18:59;8.70;99.90
16076;DHT22;8142;48.242;11.644;2024-03-17T03:21:25;8.80;99.90
16076;DHT22;8142;48.242;11.644;2024-03-17T03:23:51;8.70;99.90
16076;DHT22;8142;48.242;11.644;2024-03-17T03:26:18;8.70;99.90
16076;DHT22;8142;48.242;11.644;2024-03-17T03:28:44;8.70;99.90
16076;DHT22;8142;48.242;11.644;2024-03-17T03:31:13;8.70;99.90
16076;DHT22;8142;48.242;11.644;2024-03-17T03:33:40;8.70;99.90
16076;DHT22;8142;48.242;11.644;2024-03-17T03:36:10;8.70;99.90
16076;DHT22;8142;48.242;11.644;2024-03-17T03:38:36;8.70;99.90
16076;DHT22;8142;48.242;11.644;2024-03-17T03:41:23;8.70;99.90
16076;DHT22;8142;48.242;11.644;2024-03-17T03:43:49;8.80;99.90
16076;DHT22;8142;48.242;11.644;2024-03-17T03:46:15;8.70;99.90
16076;DHT22;8142;48.242;11.644;2024-03-17T03:48:41;8.70;99.90
16076;DHT22;8142;48.242;11.644;2024-03-17T03:51:07;8.70;99.90
16076;DHT22;8142;48.242;11.644;2024-03-17T03:53:34;8.70;99.90
16076;DHT22;8142;48.242;11.644;2024-03-17T03:56:02;8.80;99.90
16076;DHT22;8142;48.242;11.644;2024-03-17T03:58:36;8.70;99.90
16076;DHT22;8142;48.242;11.644;2024-03-17T04:01:06;8.80;99.90
16076;DHT22;8142;48.242;11.644;2024-03-17T04:03:34;8.80;99.90
16076;DHT22;8142;48.242;11.644;2024-03-17T04:06:06;8.80;99.90
16076;DHT22;8142;48.242;11.644;2024-03-17T04:08:33;8.80;99.90
16076;DHT22;8142;48.242;11.644;2024-03-17T04:11:00;8.80;99.90
16076;DHT22;8142;48.242;11.644;2024-03-17T04:13:27;8.80;99.90
16076;DHT22;8142;48.242;11.644;2024-03-17T04:15:58;8.80;99.90
16076;DHT22;8142;48.242;11.644;2024-03-17T04:18:25;8.80;99.90
16076;DHT22;8142;48.242;11.644;2024-03-17T04:20:55;8.80;99.90
16076;DHT22;8142;48.242;11.644;2024-03-17T04:23:22;8.80;99.90
16076;DHT22;8142;48.242;11.644;2024-03-17T04:25:51;8.80;99.90
16076;DHT22;8142;48.242;11.644;2024-03-17T04:28:18;8.80;99.90
16076;DHT22;8142;48.242;11.644;2024-03-17T04:30:44;8.80;99.90
16076;DHT22;8142;48.242;11.644;2024-03-17T04:33:12;8.80;99.90
16076;DHT22;8142;48.242;11.644;2024-03-17T04:35:39;8.80;99.90
16076;DHT22;8142;48.242;11.644;2024-03-17T04:38:06;8.80;99.90
16076;DHT22;8142;48.242;11.644;2024-03-17T04:40:41;8.80;99.90
16076;DHT22;8142;48.242;11.644;2024-03-17T04:43:08;8.70;99.90
16076;DHT22;8142;48.242;11.644;2024-03-17T04:45:34;8.70;99.90
16076;DHT22;8142;48.242;11.644;2024-03-17T04:48:01;8.80;99.90
16076;DHT22;8142;48.242;11.644;2024-03-17T04:50:28;8.80;99.90
16076;DHT22;8142;48.242;11.644;2024-03-17T04:53:01;8.80;99.90
16076;DHT22;8142;48.242;11.644;2024-03-17T04:55:27;8.90;99.90
16076;DHT22;8142;48.242;11.644;2024-03-17T04:57:54;8.80;99.90
16076;DHT22;8142;48.242;11.644;2024-03-17T05:00:20;8.80;99.90
16076;DHT22;8142;48.242;11.644;2024-03-17T05:02:47;8.90;99.90
16076;DHT22;8142;48.242;11.644;2024-03-17T05:05:12;8.80;99.90
16076;DHT22;8142;48.242;11.644;2024-03-17T05:07:38;8.80;99.90
16076;DHT22;8142;48.242;11.644;2024-03-17T05:10:05;8.80;99.90
16076;DHT22;8142;48.242;11.644;2024-03-17T05:12:40;8.80;99.90
16076;DHT22;8142;48.242;11.644;2024-03-17T05:15:08;8.90;99.90
16076;DHT22;8142;48.242;11.644;2024-03-17T05:17:35;8.90;99.90
16076;DHT22;8142;48.242;11.644;2024-03-17T05:20:01;8.90;99.90
16076;DHT22;8142;48.242;11.644;2024-03-17T05:22:28;8.90;99.90
16076;DHT22;8142;48.242;11.644;2024-03-17T05:24:54;8.90;99.90
16076;DHT22;8142;48.242;11.644;2024-03-17T05:27:20;8.90;99.90
16076;DHT22;8142;48.242;11.644;2024-03-17T05:29:46;8.80;99.90
16076;DHT22;8142;48.242;11.644;2024-03-17T05:32:11;8.80;99.90
16076;DHT22;8142;48.242;11.644;2024-03-17T05:34:38;8.90;99.90
16076;DHT22;8142;48.242;11.644;2024-03-17T05:37:05;8.80;99.90
16076;DHT22;8142;48.242;11.644;2024-03-17T05:39:32;8.80;99.90
16076;DHT22;8142;48.242;11.644;2024-03-17T05:41:58;8.80;99.90
16076;DHT22;8142;48.242;11.644;2024-03-17T05:44:24;8.90;99.90
16076;DHT22;8142;48.242;11.644;2024-03-17T05:46:50;8.80;99.90
16076;DHT22;8142;48.242;11.644;2024-03-17T05:49:18;8.80;99.90
16076;DHT22;8142;48.242;11.644;2024-03-17T05:51:45;8.80;99.90
16076;DHT22;8142;48.242;11.644;2024-03-17T05:54:11;8.80;99.90
16076;DHT22;8142;48.242;11.644;2024-03-17T05:56:37;8.70;99.90
16076;DHT22;8142;48.242;11.644;2024-03-17T05:59:04;8.80;99.90
16076;DHT22;8142;48.242;11.644;2024-03-17T06:01:33;8.70;99.90
16076;DHT22;8142;48.242;11.644;2024-03-17T06:03:59;8.70;99.90
16076;DHT22;8142;48.242;11.644;2024-03-17T06:06:25;8.50;99.90
16076;DHT22;8142;48.242;11.644;2024-03-17T06:08:51;8.30;99.90
16076;DHT22;8142;48.242;11.644;2024-03-17T06:11:17;8.20;99.90
16076;DHT22;8142;48.242;11.644;2024-03-17T06:13:43;8.00;99.90
16076;DHT22;8142;48.242;11.644;2024-03-17T06:16:09;7.90;99.90
16076;DHT22;8142;48.242;11.644;2024-03-17T06:18:35;7.70;99.90
16076;DHT22;8142;48.242;11.644;2024-03-17T06:21:05;7.60;99.90
16076;DHT22;8142;48.242;11.644;2024-03-17T06:23:32;7.50;99.90
16076;DHT22;8142;48.242;11.644;2024-03-17T06:25:59;7.30;99.90
16076;DHT22;8142;48.242;11.644;2024-03-17T06:28:27;7.10;99.90
16076;DHT22;8142;48.242;11.644;2024-03-17T06:30:57;7.10;99.90
16076;DHT22;8142;48.242;11.644;2024-03-17T06:33:29;7.10;99.90
16076;DHT22;8142;48.242;11.644;2024-03-17T06:35:56;7.10;99.90
16076;DHT22;8142;48.242;11.644;2024-03-17T06:38:23;7.10;99.90
16076;DHT22;8142;48.242;11.644;2024-03-17T06:40:52;7.10;99.90
16076;DHT22;8142;48.242;11.644;2024-03-17T06:43:19;7.10;99.90
16076;DHT22;8142;48.242;11.644;2024-03-17T06:45:55;7.10;99.90
16076;DHT22;8142;48.242;11.644;2024-03-17T06:48:23;7.20;99.90
16076;DHT22;8142;48.242;11.644;2024-03-17T06:50:49;7.20;99.90
16076;DHT22;8142;48.242;11.644;2024-03-17T06:53:18;7.20;99.90
16076;DHT22;8142;48.242;11.644;2024-03-17T06:55:59;7.30;99.90
16076;DHT22;8142;48.242;11.644;2024-03-17T06:58:26;7.30;99.90
16076;DHT22;8142;48.242;11.644;2024-03-17T07:00:54;7.40;99.90
16076;DHT22;8142;48.242;11.644;2024-03-17T07:03:23;7.50;99.90
16076;DHT22;8142;48.242;11.644;2024-03-17T07:05:53;7.50;99.90
16076;DHT22;8142;48.242;11.644;2024-03-17T07:08:21;7.60;99.90
16076;DHT22;8142;48.242;11.644;2024-03-17T07:11:02;7.60;99.90
16076;DHT22;8142;48.242;11.644;2024-03-17T07:13:33;7.70;99.90
16076;DHT22;8142;48.242;11.644;2024-03-17T07:16:01;7.70;99.90
16076;DHT22;8142;48.242;11.644;2024-03-17T07:18:30;7.80;99.90
16076;DHT22;8142;48.242;11.644;2024-03-17T07:21:00;7.80;99.90
16076;DHT22;8142;48.242;11.644;2024-03-17T07:23:26;7.80;99.90
16076;DHT22;8142;48.242;11.644;2024-03-17T07:25:57;7.90;99.90
16076;DHT22;8142;48.242;11.644;2024-03-17T07:28:24;8.00;99.90
16076;DHT22;8142;48.242;11.644;2024-03-17T07:30:53;8.10;99.90
16076;DHT22;8142;48.242;11.644;2024-03-17T07:33:20;8.10;99.90
16076;DHT22;8142;48.242;11.644;2024-03-17T07:35:53;8.20;99.90
16076;DHT22;8142;48.242;11.644;2024-03-17T07:38:20;8.30;99.90
16076;DHT22;8142;48.242;11.644;2024-03-17T07:40:59;8.40;99.90
16076;DHT22;8142;48.242;11.644;2024-03-17T07:43:26;8.60;99.90
16076;DHT22;8142;48.242;11.644;2024-03-17T07:46:04;8.70;99.90
16076;DHT22;8142;48.242;11.644;2024-03-17T07:48:32;8.90;99.90
16076;DHT22;8142;48.242;11.644;2024-03-17T07:50:59;9.00;99.90
16076;DHT22;8142;48.242;11.644;2024-03-17T07:53:30;9.20;99.90
16076;DHT22;8142;48.242;11.644;2024-03-17T07:56:05;9.40;99.90
16076;DHT22;8142;48.242;11.644;2024-03-17T07:58:34;9.50;99.90
16076;DHT22;8142;48.242;11.644;2024-03-17T08:01:01;9.70;99.90
16076;DHT22;8142;48.242;11.644;2024-03-17T08:03:29;9.80;99.90
16076;DHT22;8142;48.242;11.644;2024-03-17T08:05:55;9.90;99.90
16076;DHT22;8142;48.242;11.644;2024-03-17T08:08:21;10.10;99.90
16076;DHT22;8142;48.242;11.644;2024-03-17T08:10:47;10.20;99.90
16076;DHT22;8142;48.242;11.644;2024-03-17T08:13:14;10.30;99.90
16076;DHT22;8142;48.242;11.644;2024-03-17T08:15:42;10.40;99.90
16076;DHT22;8142;48.242;11.644;2024-03-17T08:18:09;10.40;99.90
16076;DHT22;8142;48.242;11.644;2024-03-17T08:20:42;10.60;99.90
16076;DHT22;8142;48.242;11.644;2024-03-17T08:23:09;10.60;99.90
16076;DHT22;8142;48.242;11.644;2024-03-17T08:25:37;10.70;99.90
16076;DHT22;8142;48.242;11.644;2024-03-17T08:28:05;10.70;99.90
16076;DHT22;8142;48.242;11.644;2024-03-17T08:30:32;10.80;99.90
16076;DHT22;8142;48.242;11.644;2024-03-17T08:32:59;10.90;99.90
16076;DHT22;8142;48.242;11.644;2024-03-17T08:35:25;10.90;99.90
16076;DHT22;8142;48.242;11.644;2024-03-17T08:37:52;10.90;99.90
16076;DHT22;8142;48.242;11.644;2024-03-17T08:40:20;11.00;99.90
16076;DHT22;8142;48.242;11.644;2024-03-17T08:42:47;11.00;99.90
16076;DHT22;8142;48.242;11.644;2024-03-17T08:45:13;11.00;99.90
16076;DHT22;8142;48.242;11.644;2024-03-17T08:47:39;11.10;99.90
16076;DHT22;8142;48.242;11.644;2024-03-17T08:50:05;11.00;99.90
16076;DHT22;8142;48.242;11.644;2024-03-17T08:52:34;11.20;99.90
16076;DHT22;8142;48.242;11.644;2024-03-17T08:55:00;11.20;99.90
16076;DHT22;8142;48.242;11.644;2024-03-17T08:57:30;11.20;99.90
16076;DHT22;8142;48.242;11.644;2024-03-17T08:59:55;11.20;99.90
16076;DHT22;8142;48.242;11.644;2024-03-17T09:02:21;11.30;99.90
16076;DHT22;8142;48.242;11.644;2024-03-17T09:04:47;11.30;99.90
16076;DHT22;8142;48.242;11.644;2024-03-17T09:07:14;11.30;99.90
16076;DHT22;8142;48.242;11.644;2024-03-17T09:09:42;11.30;99.90
16076;DHT22;8142;48.242;11.644;2024-03-17T09:12:08;11.20;99.90
16076;DHT22;8142;48.242;11.644;2024-03-17T09:14:35;11.30;99.90
16076;DHT22;8142;48.242;11.644;2024-03-17T09:17:01;11.30;99.90
16076;DHT22;8142;48.242;11.644;2024-03-17T09:19:27;11.30;99.90
16076;DHT22;8142;48.242;11.644;2024-03-17T09:21:55;11.30;99.90
16076;DHT22;8142;48.242;11.644;2024-03-17T09:24:21;11.30;99.90
16076;DHT22;8142;48.242;11.644;2024-03-17T09:26:47;11.30;99.90
16076;DHT22;8142;48.242;11.644;2024-03-17T09:29:13;11.30;99.90
16076;DHT22;8142;48.242;11.644;2024-03-17T09:31:41;11.30;99.90
16076;DHT22;8142;48.242;11.644;2024-03-17T09:34:08;11.30;99.90
16076;DHT22;8142;48.242;11.644;2024-03-17T09:36:35;11.20;99.90
16076;DHT22;8142;48.242;11.644;2024-03-17T09:39:01;11.40;99.90
16076;DHT22;8142;48.242;11.644;2024-03-17T09:41:30;11.40;99.90
16076;DHT22;8142;48.242;11.644;2024-03-17T09:43:57;11.50;99.90
16076;DHT22;8142;48.242;11.644;2024-03-17T09:46:24;11.50;99.90
16076;DHT22;8142;48.242;11.644;2024-03-17T09:48:52;11.50;99.90
16076;DHT22;8142;48.242;11.644;2024-03-17T09:51:23;11.50;99.90
16076;DHT22;8142;48.242;11.644;2024-03-17T09:53:50;11.30;99.90
16076;DHT22;8142;48.242;11.644;2024-03-17T09:56:18;11.40;99.90
16076;DHT22;8142;48.242;11.644;2024-03-17T09:58:45;11.50;99.90
16076;DHT22;8142;48.242;11.644;2024-03-17T10:01:11;11.50;99.90
16076;DHT22;8142;48.242;11.644;2024-03-17T10:03:51;11.40;99.90
16076;DHT22;8142;48.242;11.644;2024-03-17T10:06:22;11.40;99.90
16076;DHT22;8142;48.242;11.644;2024-03-17T10:11:23;11.40;99.90
16076;DHT22;8142;48.242;11.644;2024-03-17T10:14:03;11.40;99.90
16076;DHT22;8142;48.242;11.644;2024-03-17T10:16:31;11.40;99.90
16076;DHT22;8142;48.242;11.644;2024-03-17T10:19:24;11.50;99.90
16076;DHT22;8142;48.242;11.644;2024-03-17T10:21:58;11.40;99.90
16076;DHT22;8142;48.242;11.644;2024-03-17T10:24:27;11.50;99.90
16076;DHT22;8142;48.242;11.644;2024-03-17T10:26:55;11.50;99.90
16076;DHT22;8142;48.242;11.644;2024-03-17T10:29:30;11.50;99.90
16076;DHT22;8142;48.242;11.644;2024-03-17T10:31:58;11.30;99.90
16076;DHT22;8142;48.242;11.644;2024-03-17T10:34:26;11.50;99.90
16076;DHT22;8142;48.242;11.644;2024-03-17T10:37:09;11.40;99.90
16076;DHT22;8142;48.242;11.644;2024-03-17T10:39:42;11.50;99.90
16076;DHT22;8142;48.242;11.644;2024-03-17T10:42:10;11.50;99.90
16076;DHT22;8142;48.242;11.644;2024-03-17T10:44:41;11.40;99.90
16076;DHT22;8142;48.242;11.644;2024-03-17T10:47:24;11.40;99.90
16076;DHT22;8142;48.242;11.644;2024-03-17T10:49:51;11.40;99.90
16076;DHT22;8142;48.242;11.644;2024-03-17T10:52:18;11.30;99.90
16076;DHT22;8142;48.242;11.644;2024-03-17T10:54:50;11.40;99.90
16076;DHT22;8142;48.242;11.644;2024-03-17T10:57:31;11.40;99.90
16076;DHT22;8142;48.242;11.644;2024-03-17T10:59:59;11.40;99.90
16076;DHT22;8142;48.242;11.644;2024-03-17T11:02:28;11.50;99.90
16076;DHT22;8142;48.242;11.644;2024-03-17T11:05:03;11.60;99.90
16076;DHT22;8142;48.242;11.644;2024-03-17T11:07:30;11.70;99.90
16076;DHT22;8142;48.242;11.644;2024-03-17T11:09:59;11.80;99.90
16076;DHT22;8142;48.242;11.644;2024-03-17T11:12:40;11.90;99.90
16076;DHT22;8142;48.242;11.644;2024-03-17T11:17:52;12.00;99.90
16076;DHT22;8142;48.242;11.644;2024-03-17T11:20:26;12.00;99.90
16076;DHT22;8142;48.242;11.644;2024-03-17T11:22:55;12.10;99.90
16076;DHT22;8142;48.242;11.644;2024-03-17T11:27:57;12.30;99.90
16076;DHT22;8142;48.242;11.644;2024-03-17T11:41:38;12.50;99.90
16076;DHT22;8142;48.242;11.644;2024-03-17T11:46:58;12.50;99.90
16076;DHT22;8142;48.242;11.644;2024-03-17T11:52:14;12.60;99.90
16076;DHT22;8142;48.242;11.644;2024-03-17T11:54:43;12.60;99.90
16076;DHT22;8142;48.242;11.644;2024-03-17T11:57:15;12.70;99.90
16076;DHT22;8142;48.242;11.644;2024-03-17T11:59:45;12.70;99.90
16076;DHT22;8142;48.242;11.644;2024-03-17T12:04:43;12.90;99.90
16076;DHT22;8142;48.242;11.644;2024-03-17T12:07:14;12.90;99.90
16076;DHT22;8142;48.242;11.644;2024-03-17T12:09:42;12.90;99.90
16076;DHT22;8142;48.242;11.644;2024-03-17T12:12:09;12.90;99.90
16076;DHT22;8142;48.242;11.644;2024-03-17T12:14:36;13.00;99.90
16076;DHT22;8142;48.242;11.644;2024-03-17T12:17:08;12.90;99.90
16076;DHT22;8142;48.242;11.644;2024-03-17T12:19:34;13.00;99.90
16076;DHT22;8142;48.242;11.644;2024-03-17T12:22:02;13.10;99.90
16076;DHT22;8142;48.242;11.644;2024-03-17T12:24:37;13.10;99.90
16076;DHT22;8142;48.242;11.644;2024-03-17T12:27:06;13.20;99.90
16076;DHT22;8142;48.242;11.644;2024-03-17T12:29:34;13.20;99.90
16076;DHT22;8142;48.242;11.644;2024-03-17T12:32:26;13.20;99.90
16076;DHT22;8142;48.242;11.644;2024-03-17T12:34:56;13.20;99.90
16076;DHT22;8142;48.242;11.644;2024-03-17T12:37:26;13.30;99.90
16076;DHT22;8142;48.242;11.644;2024-03-17T12:40:00;13.30;99.90
16076;DHT22;8142;48.242;11.644;2024-03-17T12:42:27;13.30;99.90
16076;DHT22;8142;48.242;11.644;2024-03-17T12:44:58;13.30;99.90
16076;DHT22;8142;48.242;11.644;2024-03-17T12:47:26;13.30;99.90
16076;DHT22;8142;48.242;11.644;2024-03-17T12:49:59;13.30;99.90
16076;DHT22;8142;48.242;11.644;2024-03-17T12:55:02;13.20;99.90
16076;DHT22;8142;48.242;11.644;2024-03-17T12:57:51;13.10;99.90
16076;DHT22;8142;48.242;11.644;2024-03-17T13:00:36;13.00;99.90
16076;DHT22;8142;48.242;11.644;2024-03-17T13:03:06;13.00;99.90
16076;DHT22;8142;48.242;11.644;2024-03-17T13:05:34;12.90;99.90
16076;DHT22;8142;48.242;11.644;2024-03-17T13:08:00;12.90;99.90
16076;DHT22;8142;48.242;11.644;2024-03-17T13:10:28;12.90;99.90
16076;DHT22;8142;48.242;11.644;2024-03-17T13:13:05;12.80;99.90
16076;DHT22;8142;48.242;11.644;2024-03-17T13:15:33;12.80;99.90
16076;DHT22;8142;48.242;11.644;2024-03-17T13:18:03;12.80;99.90
16076;DHT22;8142;48.242;11.644;2024-03-17T13:20:32;12.80;99.90
16076;DHT22;8142;48.242;11.644;2024-03-17T13:22:58;12.90;99.90
16076;DHT22;8142;48.242;11.644;2024-03-17T13:25:29;13.00;99.90
16076;DHT22;8142;48.242;11.644;2024-03-17T13:28:00;13.00;99.90
16076;DHT22;8142;48.242;11.644;2024-03-17T13:30:26;13.10;99.90
16076;DHT22;8142;48.242;11.644;2024-03-17T13:32:55;13.10;99.90
16076;DHT22;8142;48.242;11.644;2024-03-17T13:35:26;13.20;99.90
16076;DHT22;8142;48.242;11.644;2024-03-17T13:37:53;13.20;99.90
16076;DHT22;8142;48.242;11.644;2024-03-17T13:40:22;13.30;99.90
16076;DHT22;8142;48.242;11.644;2024-03-17T13:42:50;13.30;99.90
16076;DHT22;8142;48.242;11.644;2024-03-17T13:45:17;13.30;99.90
16076;DHT22;8142;48.242;11.644;2024-03-17T13:47:47;13.40;99.90
16076;DHT22;8142;48.242;11.644;2024-03-17T13:50:14;13.40;99.90
16076;DHT22;8142;48.242;11.644;2024-03-17T13:52:41;13.50;99.90
16076;DHT22;8142;48.242;11.644;2024-03-17T13:55:14;13.50;99.90
16076;DHT22;8142;48.242;11.644;2024-03-17T13:57:42;13.50;99.90
16076;DHT22;8142;48.242;11.644;2024-03-17T14:00:09;13.50;99.90
16076;DHT22;8142;48.242;11.644;2024-03-17T14:02:36;13.50;99.90
16076;DHT22;8142;48.242;11.644;2024-03-17T14:05:03;13.50;99.90
16076;DHT22;8142;48.242;11.644;2024-03-17T14:07:33;13.60;99.90
16076;DHT22;8142;48.242;11.644;2024-03-17T14:10:00;13.50;99.90
16076;DHT22;8142;48.242;11.644;2024-03-17T14:12:26;13.60;99.90
16076;DHT22;8142;48.242;11.644;2024-03-17T14:14:52;13.60;99.90
16076;DHT22;8142;48.242;11.644;2024-03-17T14:17:18;13.60;99.90
16076;DHT22;8142;48.242;11.644;2024-03-17T14:19:44;13.60;99.90
16076;DHT22;8142;48.242;11.644;2024-03-17T14:22:10;13.60;99.90
16076;DHT22;8142;48.242;11.644;2024-03-17T14:24:36;13.60;99.90
16076;DHT22;8142;48.242;11.644;2024-03-17T14:27:02;13.60;99.90
16076;DHT22;8142;48.242;11.644;2024-03-17T14:29:29;13.60;99.90
16076;DHT22;8142;48.242;11.644;2024-03-17T14:31:56;13.60;99.90
16076;DHT22;8142;48.242;11.644;2024-03-17T14:34:22;13.50;99.90
16076;DHT22;8142;48.242;11.644;2024-03-17T14:36:48;13.50;99.90
16076;DHT22;8142;48.242;11.644;2024-03-17T14:39:14;13.50;99.90
16076;DHT22;8142;48.242;11.644;2024-03-17T14:41:40;13.50;99.90
16076;DHT22;8142;48.242;11.644;2024-03-17T14:44:05;13.50;99.90
16076;DHT22;8142;48.242;11.644;2024-03-17T14:46:31;13.50;99.90
16076;DHT22;8142;48.242;11.644;2024-03-17T14:48:57;13.50;99.90
16076;DHT22;8142;48.242;11.644;2024-03-17T14:51:23;13.50;99.90
16076;DHT22;8142;48.242;11.644;2024-03-17T14:53:49;13.50;99.90
16076;DHT22;8142;48.242;11.644;2024-03-17T14:56:18;13.50;99.90
16076;DHT22;8142;48.242;11.644;2024-03-17T14:58:45;13.50;99.90
16076;DHT22;8142;48.242;11.644;2024-03-17T15:01:12;13.50;99.90
16076;DHT22;8142;48.242;11.644;2024-03-17T15:03:38;13.50;99.90
16076;DHT22;8142;48.242;11.644;2024-03-17T15:06:14;13.50;99.90
16076;DHT22;8142;48.242;11.644;2024-03-17T15:08:41;13.50;99.90
16076;DHT22;8142;48.242;11.644;2024-03-17T15:11:07;13.50;99.90
16076;DHT22;8142;48.242;11.644;2024-03-17T15:13:35;13.50;99.90
16076;DHT22;8142;48.242;11.644;2024-03-17T15:16:03;13.40;99.90
16076;DHT22;8142;48.242;11.644;2024-03-17T15:18:31;13.40;99.90
16076;DHT22;8142;48.242;11.644;2024-03-17T15:20:57;13.40;99.90
16076;DHT22;8142;48.242;11.644;2024-03-17T15:23:23;13.40;99.90
16076;DHT22;8142;48.242;11.644;2024-03-17T15:26:05;13.30;99.90
16076;DHT22;8142;48.242;11.644;2024-03-17T15:28:42;13.30;99.90
16076;DHT22;8142;48.242;11.644;2024-03-17T15:31:11;13.30;99.90
16076;DHT22;8142;48.242;11.644;2024-03-17T15:33:38;13.30;99.90
16076;DHT22;8142;48.242;11.644;2024-03-17T15:36:09;13.20;99.90
16076;DHT22;8142;48.242;11.644;2024-03-17T15:38:37;13.20;99.90
16076;DHT22;8142;48.242;11.644;2024-03-17T15:41:07;13.20;99.90
16076;DHT22;8142;48.242;11.644;2024-03-17T15:43:33;13.20;99.90
16076;DHT22;8142;48.242;11.644;2024-03-17T15:46:00;13.20;99.90
16076;DHT22;8142;48.242;11.644;2024-03-17T15:48:27;13.10;99.90
16076;DHT22;8142;48.242;11.644;2024-03-17T15:50:55;13.10;99.90
16076;DHT22;8142;48.242;11.644;2024-03-17T15:53:22;13.10;99.90
16076;DHT22;8142;48.242;11.644;2024-03-17T15:55:55;13.10;99.90
16076;DHT22;8142;48.242;11.644;2024-03-17T15:58:23;13.10;99.90
16076;DHT22;8142;48.242;11.644;2024-03-17T16:00:49;13.00;99.90
16076;DHT22;8142;48.242;11.644;2024-03-17T16:03:15;13.00;99.90
16076;DHT22;8142;48.242;11.644;2024-03-17T16:05:48;12.90;99.90
16076;DHT22;8142;48.242;11.644;2024-03-17T16:08:17;12.90;99.90
16076;DHT22;8142;48.242;11.644;2024-03-17T16:10:52;12.80;99.90
16076;DHT22;8142;48.242;11.644;2024-03-17T16:13:19;12.70;99.90
16076;DHT22;8142;48.242;11.644;2024-03-17T16:15:47;12.70;99.90